Time,TemperatureF,DewpointF,PressureIn,WindDirection,WindDirectionDegrees,WindSpeedMPH,WindSpeedGustMPH,Humidity,HourlyPrecipIn,Conditions,Clouds,dailyrainin,SoftwareType,DateUTC
2013-07-05 00:00:00,72.1,70.3,30.05,East,91,1.0,9.0,94,0.00,,,0.00,meteohub,2013-07-05 05:00:00,
2013-07-05 00:05:00,72.1,70.3,30.06,ENE,77,4.0,7.0,94,0.00,,,0.00,meteohub,2013-07-05 05:05:00,
2013-07-05 00:10:00,72.3,70.5,30.05,ESE,105,3.0,7.0,94,0.00,,,0.00,meteohub,2013-07-05 05:10:00,
2013-07-05 00:15:00,72.1,70.3,30.05,SE,125,3.0,7.0,94,0.00,,,0.00,meteohub,2013-07-05 05:15:00,
2013-07-05 00:20:00,72.1,70.3,30.06,ESE,114,3.0,8.0,94,0.00,,,0.00,meteohub,2013-07-05 05:20:00,
2013-07-05 00:25:00,72.1,70.3,30.06,East,100,3.0,8.0,94,0.00,,,0.00,meteohub,2013-07-05 05:25:00,
2013-07-05 00:30:00,72.1,70.3,30.05,ESE,116,1.0,6.0,94,0.00,,,0.00,meteohub,2013-07-05 05:30:00,
2013-07-05 00:35:00,72.1,70.3,30.06,ESE,119,1.0,8.0,94,0.00,,,0.00,meteohub,2013-07-05 05:35:00,
2013-07-05 00:40:00,72.1,70.3,30.05,ENE,75,2.0,8.0,94,0.00,,,0.00,meteohub,2013-07-05 05:40:00,
2013-07-05 00:46:00,72.1,70.7,30.06,SE,131,0.0,8.0,95,0.00,,,0.00,meteohub,2013-07-05 05:46:00,
2013-07-05 00:51:00,72.1,70.3,30.06,East,95,1.0,6.0,94,0.01,,,0.01,meteohub,2013-07-05 05:51:00,
2013-07-05 00:56:00,72.1,70.7,30.06,ESE,117,2.0,6.0,95,0.01,,,0.01,meteohub,2013-07-05 05:56:00,
2013-07-05 01:01:00,72.0,70.5,30.06,East,83,3.0,6.0,95,0.01,,,0.01,meteohub,2013-07-05 06:01:00,
2013-07-05 01:06:00,72.0,70.5,30.06,ESE,110,1.0,7.0,95,0.01,,,0.01,meteohub,2013-07-05 06:06:00,
2013-07-05 01:11:00,72.0,70.5,30.05,ESE,114,2.0,7.0,95,0.01,,,0.01,meteohub,2013-07-05 06:11:00,
2013-07-05 01:16:00,72.0,70.5,30.05,East,98,2.0,7.0,95,0.01,,,0.01,meteohub,2013-07-05 06:16:00,
2013-07-05 01:21:00,72.0,70.5,30.06,ESE,120,4.0,7.0,95,0.01,,,0.01,meteohub,2013-07-05 06:21:00,
2013-07-05 01:27:00,72.0,70.5,30.06,SE,134,3.0,5.0,95,0.01,,,0.01,meteohub,2013-07-05 06:27:00,
2013-07-05 01:32:00,72.0,70.5,30.06,ESE,108,1.0,6.0,95,0.01,,,0.01,meteohub,2013-07-05 06:32:00,
2013-07-05 01:37:00,71.8,70.3,30.05,East,92,2.0,6.0,95,0.01,,,0.01,meteohub,2013-07-05 06:37:00,
2013-07-05 01:42:00,71.8,70.3,30.06,ESE,106,1.0,6.0,95,0.01,,,0.01,meteohub,2013-07-05 06:42:00,
2013-07-05 01:47:00,71.8,70.3,30.05,ESE,109,0.0,7.0,95,0.01,,,0.01,meteohub,2013-07-05 06:47:00,
2013-07-05 01:52:00,71.6,70.2,30.05,East,101,2.0,7.0,95,0.00,,,0.01,meteohub,2013-07-05 06:52:00,
2013-07-05 01:57:00,71.6,70.2,30.06,East,83,5.0,7.0,95,0.00,,,0.01,meteohub,2013-07-05 06:57:00,
2013-07-05 02:02:00,71.4,70.0,30.06,East,96,2.0,7.0,95,0.00,,,0.01,meteohub,2013-07-05 07:02:00,
2013-07-05 02:07:00,71.4,70.0,30.06,East,94,1.0,7.0,95,0.00,,,0.01,meteohub,2013-07-05 07:07:00,
2013-07-05 02:12:00,71.4,70.0,30.06,ESE,113,2.0,7.0,95,0.00,,,0.01,meteohub,2013-07-05 07:12:00,
2013-07-05 02:17:00,71.4,70.0,30.06,SE,129,1.0,8.0,95,0.00,,,0.01,meteohub,2013-07-05 07:17:00,
2013-07-05 02:22:00,71.4,70.0,30.06,ESE,111,5.0,8.0,95,0.00,,,0.01,meteohub,2013-07-05 07:22:00,
2013-07-05 02:28:00,71.2,69.8,30.06,ESE,113,7.0,8.0,95,0.00,,,0.01,meteohub,2013-07-05 07:28:00,
2013-07-05 02:33:00,71.2,69.8,30.06,ESE,110,1.0,8.0,95,0.00,,,0.01,meteohub,2013-07-05 07:33:00,
2013-07-05 02:38:00,71.2,69.8,30.06,ESE,114,3.0,8.0,95,0.00,,,0.01,meteohub,2013-07-05 07:38:00,
2013-07-05 02:43:00,71.2,69.8,30.05,SE,124,6.0,8.0,95,0.00,,,0.01,meteohub,2013-07-05 07:43:00,
2013-07-05 02:48:00,71.2,69.8,30.05,SE,143,3.0,7.0,95,0.00,,,0.01,meteohub,2013-07-05 07:48:00,
2013-07-05 02:53:00,71.2,69.8,30.06,ENE,70,2.0,9.0,95,0.00,,,0.01,meteohub,2013-07-05 07:53:00,
2013-07-05 02:58:00,71.2,69.8,30.06,SE,137,1.0,9.0,95,0.00,,,0.01,meteohub,2013-07-05 07:58:00,
2013-07-05 03:03:00,71.2,69.8,30.06,ESE,121,3.0,9.0,95,0.00,,,0.01,meteohub,2013-07-05 08:03:00,
2013-07-05 03:08:00,71.2,69.8,30.06,ESE,103,3.0,8.0,95,0.00,,,0.01,meteohub,2013-07-05 08:08:00,
2013-07-05 03:14:00,71.2,69.8,30.06,East,81,3.0,9.0,95,0.00,,,0.01,meteohub,2013-07-05 08:14:00,
2013-07-05 03:19:00,71.2,69.8,30.06,ESE,108,4.0,9.0,95,0.00,,,0.01,meteohub,2013-07-05 08:19:00,
2013-07-05 03:24:00,71.2,69.8,30.06,ESE,102,3.0,8.0,95,0.00,,,0.01,meteohub,2013-07-05 08:24:00,
2013-07-05 03:29:00,71.2,69.8,30.06,SE,128,1.0,9.0,95,0.00,,,0.01,meteohub,2013-07-05 08:29:00,
2013-07-05 03:34:00,71.2,69.8,30.06,ESE,113,2.0,11.0,95,0.00,,,0.01,meteohub,2013-07-05 08:34:00,
2013-07-05 03:39:00,71.1,69.6,30.06,East,87,5.0,11.0,95,0.00,,,0.01,meteohub,2013-07-05 08:39:00,
2013-07-05 03:44:00,71.1,69.6,30.06,SE,140,3.0,11.0,95,0.00,,,0.01,meteohub,2013-07-05 08:44:00,
2013-07-05 03:49:00,71.1,69.6,30.06,East,94,3.0,10.0,95,0.00,,,0.01,meteohub,2013-07-05 08:49:00,
2013-07-05 03:57:00,71.1,69.6,30.06,SE,141,1.0,10.0,95,0.00,,,0.01,meteohub,2013-07-05 08:57:00,
2013-07-05 04:02:00,71.1,69.6,30.06,ESE,104,3.0,9.0,95,0.00,,,0.01,meteohub,2013-07-05 09:02:00,
2013-07-05 04:07:00,71.1,69.6,30.07,East,89,2.0,7.0,95,0.00,,,0.01,meteohub,2013-07-05 09:07:00,
2013-07-05 04:13:00,71.1,69.6,30.07,East,98,3.0,7.0,95,0.00,,,0.01,meteohub,2013-07-05 09:13:00,
2013-07-05 04:18:00,71.1,69.6,30.07,ESE,122,4.0,7.0,95,0.00,,,0.01,meteohub,2013-07-05 09:18:00,
2013-07-05 04:24:00,71.1,69.6,30.07,ESE,116,1.0,10.0,95,0.00,,,0.01,meteohub,2013-07-05 09:24:00,
2013-07-05 04:29:00,71.1,69.6,30.06,ESE,103,1.0,10.0,95,0.00,,,0.01,meteohub,2013-07-05 09:29:00,
2013-07-05 04:40:00,71.1,69.6,30.07,SE,131,6.0,9.0,95,0.00,,,0.01,meteohub,2013-07-05 09:40:00,
2013-07-05 04:45:00,70.9,69.4,30.07,ESE,102,3.0,7.0,95,0.00,,,0.01,meteohub,2013-07-05 09:45:00,
2013-07-05 04:50:00,70.9,69.4,30.07,ESE,112,4.0,7.0,95,0.00,,,0.01,meteohub,2013-07-05 09:50:00,
2013-07-05 04:55:00,70.9,69.4,30.06,SE,139,3.0,7.0,95,0.00,,,0.01,meteohub,2013-07-05 09:55:00,
2013-07-05 05:00:00,70.9,69.4,30.06,ESE,104,4.0,7.0,95,0.00,,,0.01,meteohub,2013-07-05 10:00:00,
2013-07-05 05:06:00,70.9,69.4,30.07,ESE,123,2.0,9.0,95,0.00,,,0.01,meteohub,2013-07-05 10:06:00,
2013-07-05 05:11:00,70.9,69.4,30.07,ESE,112,3.0,9.0,95,0.00,,,0.01,meteohub,2013-07-05 10:11:00,
2013-07-05 05:17:00,70.9,69.4,30.07,East,99,3.0,9.0,95,0.00,,,0.01,meteohub,2013-07-05 10:17:00,
2013-07-05 05:22:00,70.9,69.4,30.07,East,97,5.0,10.0,95,0.00,,,0.01,meteohub,2013-07-05 10:22:00,
2013-07-05 05:28:00,70.9,69.4,30.07,SE,140,6.0,10.0,95,0.00,,,0.01,meteohub,2013-07-05 10:28:00,
2013-07-05 05:34:00,71.1,69.6,30.08,ENE,67,3.0,11.0,95,0.00,,,0.01,meteohub,2013-07-05 10:34:00,
2013-07-05 05:42:00,71.1,69.6,30.08,ESE,118,1.0,12.0,95,0.00,,,0.01,meteohub,2013-07-05 10:42:00,
2013-07-05 05:47:00,71.1,69.6,30.08,East,83,6.0,12.0,95,0.00,,,0.01,meteohub,2013-07-05 10:47:00,
2013-07-05 05:52:00,71.1,69.6,30.08,ESE,105,2.0,10.0,95,0.00,,,0.01,meteohub,2013-07-05 10:52:00,
2013-07-05 05:57:00,71.2,69.8,30.09,ESE,116,2.0,10.0,95,0.00,,,0.01,meteohub,2013-07-05 10:57:00,
2013-07-05 06:02:00,71.2,69.8,30.09,ESE,120,1.0,9.0,95,0.00,,,0.01,meteohub,2013-07-05 11:02:00,
2013-07-05 06:07:00,71.2,69.8,30.09,East,101,1.0,10.0,95,0.00,,,0.01,meteohub,2013-07-05 11:07:00,
2013-07-05 06:12:00,71.2,69.8,30.09,ENE,67,2.0,10.0,95,0.00,,,0.01,meteohub,2013-07-05 11:12:00,
2013-07-05 06:17:00,71.2,69.8,30.09,SE,135,3.0,10.0,95,0.00,,,0.01,meteohub,2013-07-05 11:17:00,
2013-07-05 06:24:00,71.4,70.0,30.09,ESE,106,3.0,9.0,95,0.00,,,0.01,meteohub,2013-07-05 11:24:00,
2013-07-05 06:30:00,71.4,70.0,30.09,SE,126,1.0,10.0,95,0.00,,,0.01,meteohub,2013-07-05 11:30:00,
2013-07-05 06:36:00,71.4,70.0,30.09,ESE,107,2.0,10.0,95,0.00,,,0.01,meteohub,2013-07-05 11:36:00,
2013-07-05 06:41:00,71.4,70.0,30.09,ESE,121,5.0,10.0,95,0.00,,,0.01,meteohub,2013-07-05 11:41:00,
2013-07-05 06:47:00,71.4,70.0,30.09,SE,132,4.0,8.0,95,0.01,,,0.02,meteohub,2013-07-05 11:47:00,
2013-07-05 06:52:00,71.4,70.0,30.09,SE,129,1.0,8.0,95,0.01,,,0.02,meteohub,2013-07-05 11:52:00,
2013-07-05 06:57:00,71.4,70.0,30.08,ESE,118,2.0,8.0,95,0.01,,,0.02,meteohub,2013-07-05 11:57:00,
2013-07-05 07:02:00,71.4,70.0,30.08,SE,125,1.0,8.0,95,0.01,,,0.02,meteohub,2013-07-05 12:02:00,
2013-07-05 07:07:00,71.4,70.0,30.09,ESE,116,2.0,10.0,95,0.01,,,0.02,meteohub,2013-07-05 12:07:00,
2013-07-05 07:12:00,71.4,70.0,30.09,ESE,104,2.0,10.0,95,0.01,,,0.02,meteohub,2013-07-05 12:12:00,
2013-07-05 07:17:00,71.6,70.2,30.09,ENE,77,2.0,10.0,95,0.01,,,0.02,meteohub,2013-07-05 12:17:00,
2013-07-05 07:22:00,71.6,70.2,30.09,East,95,3.0,8.0,95,0.01,,,0.02,meteohub,2013-07-05 12:22:00,
2013-07-05 07:27:00,71.8,70.3,30.10,SE,131,2.0,8.0,95,0.01,,,0.02,meteohub,2013-07-05 12:27:00,
2013-07-05 07:32:00,71.8,70.3,30.10,ESE,116,1.0,8.0,95,0.01,,,0.02,meteohub,2013-07-05 12:32:00,
2013-07-05 07:37:00,72.0,70.5,30.10,ESE,102,1.0,8.0,95,0.01,,,0.02,meteohub,2013-07-05 12:37:00,
2013-07-05 07:42:00,72.0,70.5,30.10,SE,126,7.0,9.0,95,0.00,,,0.02,meteohub,2013-07-05 12:42:00,
2013-07-05 07:47:00,72.0,70.5,30.10,SE,145,3.0,9.0,95,0.00,,,0.02,meteohub,2013-07-05 12:47:00,
2013-07-05 07:52:00,72.1,70.7,30.10,East,95,0.0,9.0,95,0.00,,,0.02,meteohub,2013-07-05 12:52:00,
2013-07-05 07:57:00,72.1,70.7,30.10,ESE,117,3.0,8.0,95,0.00,,,0.02,meteohub,2013-07-05 12:57:00,
2013-07-05 08:02:00,72.3,70.9,30.10,East,90,5.0,7.0,95,0.00,,,0.02,meteohub,2013-07-05 13:02:00,
2013-07-05 08:07:00,72.3,70.5,30.11,SE,134,2.0,7.0,94,0.00,,,0.02,meteohub,2013-07-05 13:07:00,
2013-07-05 08:12:00,72.5,70.7,30.11,SE,126,5.0,9.0,94,0.00,,,0.02,meteohub,2013-07-05 13:12:00,
2013-07-05 08:17:00,72.7,70.9,30.11,ESE,118,4.0,9.0,94,0.00,,,0.02,meteohub,2013-07-05 13:17:00,
2013-07-05 08:22:00,72.9,71.1,30.11,SE,124,5.0,11.0,94,0.00,,,0.02,meteohub,2013-07-05 13:22:00,
2013-07-05 08:27:00,73.0,71.2,30.11,East,92,8.0,11.0,94,0.00,,,0.02,meteohub,2013-07-05 13:27:00,
2013-07-05 08:37:00,73.4,71.2,30.11,East,96,5.0,8.0,93,0.00,,,0.02,meteohub,2013-07-05 13:37:00,
2013-07-05 08:42:00,73.6,71.4,30.11,ESE,102,8.0,9.0,93,0.00,,,0.02,meteohub,2013-07-05 13:42:00,
2013-07-05 08:47:00,73.8,71.6,30.11,SSE,158,2.0,9.0,93,0.00,,,0.02,meteohub,2013-07-05 13:47:00,
2013-07-05 08:55:00,73.9,71.4,30.11,East,97,2.0,9.0,92,0.00,,,0.02,meteohub,2013-07-05 13:55:00,
2013-07-05 09:02:00,74.5,72.0,30.11,ESE,106,4.0,9.0,92,0.00,,,0.02,meteohub,2013-07-05 14:02:00,
2013-07-05 09:08:00,74.7,72.1,30.11,SE,129,4.0,9.0,92,0.00,,,0.02,meteohub,2013-07-05 14:08:00,
2013-07-05 09:15:00,74.8,72.3,30.11,ENE,77,5.0,8.0,92,0.00,,,0.02,meteohub,2013-07-05 14:15:00,
2013-07-05 09:20:00,74.8,72.0,30.11,East,95,3.0,13.0,91,0.00,,,0.02,meteohub,2013-07-05 14:20:00,
2013-07-05 09:27:00,74.7,71.8,30.11,ENE,70,8.0,13.0,91,0.00,,,0.02,meteohub,2013-07-05 14:27:00,
2013-07-05 09:32:00,74.7,71.8,30.11,SE,133,3.0,13.0,91,0.00,,,0.02,meteohub,2013-07-05 14:32:00,
2013-07-05 09:41:00,74.7,72.1,30.12,SSE,147,4.0,13.0,92,0.00,,,0.02,meteohub,2013-07-05 14:41:00,
2013-07-05 09:46:00,74.1,71.2,30.12,ESE,114,8.0,13.0,91,0.00,,,0.02,meteohub,2013-07-05 14:46:00,
2013-07-05 09:52:00,73.9,71.1,30.12,ESE,114,10.0,13.0,91,0.00,,,0.02,meteohub,2013-07-05 14:52:00,
2013-07-05 09:57:00,73.8,71.2,30.12,ESE,117,3.0,13.0,92,0.00,,,0.02,meteohub,2013-07-05 14:57:00,
2013-07-05 10:02:00,73.6,71.1,30.12,SE,133,6.0,13.0,92,0.00,,,0.02,meteohub,2013-07-05 15:02:00,
2013-07-05 10:07:00,73.6,71.1,30.12,SE,146,5.0,12.0,92,0.00,,,0.02,meteohub,2013-07-05 15:07:00,
2013-07-05 10:12:00,73.4,70.9,30.12,East,97,5.0,12.0,92,0.00,,,0.02,meteohub,2013-07-05 15:12:00,
2013-07-05 10:22:00,73.0,70.9,30.12,SE,134,7.0,12.0,93,0.00,,,0.02,meteohub,2013-07-05 15:22:00,
2013-07-05 10:27:00,73.0,70.9,30.12,East,97,3.0,14.0,93,0.00,,,0.02,meteohub,2013-07-05 15:27:00,
2013-07-05 10:32:00,72.9,70.7,30.12,East,93,7.0,14.0,93,0.00,,,0.02,meteohub,2013-07-05 15:32:00,
2013-07-05 10:37:00,72.9,70.7,30.12,SE,141,5.0,14.0,93,0.01,,,0.03,meteohub,2013-07-05 15:37:00,
2013-07-05 10:42:00,72.9,71.1,30.12,East,100,3.0,10.0,94,0.01,,,0.03,meteohub,2013-07-05 15:42:00,
2013-07-05 10:47:00,72.9,71.1,30.12,ESE,118,3.0,10.0,94,0.01,,,0.03,meteohub,2013-07-05 15:47:00,
2013-07-05 10:50:00,72.9,71.1,30.12,SE,143,3.0,10.0,94,0.01,,,0.03,meteohub,2013-07-05 15:50:00,
2013-07-05 10:55:00,72.9,71.1,30.12,East,79,3.0,9.0,94,0.01,,,0.03,meteohub,2013-07-05 15:55:00,
2013-07-05 11:00:00,72.9,71.1,30.12,East,95,1.0,7.0,94,0.01,,,0.03,meteohub,2013-07-05 16:00:00,
2013-07-05 11:05:00,72.9,71.1,30.12,ESE,104,3.0,7.0,94,0.01,,,0.03,meteohub,2013-07-05 16:05:00,
2013-07-05 11:11:00,72.9,71.1,30.12,SE,127,4.0,8.0,94,0.01,,,0.03,meteohub,2013-07-05 16:11:00,
2013-07-05 11:16:00,73.0,71.2,30.12,ENE,63,3.0,9.0,94,0.01,,,0.03,meteohub,2013-07-05 16:16:00,
2013-07-05 11:21:00,73.2,71.4,30.12,ESE,110,3.0,9.0,94,0.01,,,0.03,meteohub,2013-07-05 16:21:00,
2013-07-05 11:26:00,73.2,71.4,30.12,SE,124,1.0,9.0,94,0.01,,,0.03,meteohub,2013-07-05 16:26:00,
2013-07-05 11:31:00,73.2,71.1,30.12,ESE,108,2.0,9.0,93,0.01,,,0.03,meteohub,2013-07-05 16:31:00,
2013-07-05 11:36:00,73.2,71.1,30.12,ESE,116,4.0,10.0,93,0.00,,,0.03,meteohub,2013-07-05 16:36:00,
2013-07-05 11:41:00,73.2,71.1,30.13,ESE,119,3.0,10.0,93,0.00,,,0.03,meteohub,2013-07-05 16:41:00,
2013-07-05 11:46:00,73.4,71.2,30.12,ESE,109,5.0,9.0,93,0.00,,,0.03,meteohub,2013-07-05 16:46:00,
2013-07-05 11:47:00,73.4,71.2,30.12,SE,125,4.0,9.0,93,0.00,,,0.03,meteohub,2013-07-05 16:47:00,
2013-07-05 11:52:00,73.4,71.6,30.12,East,100,2.0,9.0,94,0.00,,,0.03,meteohub,2013-07-05 16:52:00,
2013-07-05 11:57:00,73.6,71.4,30.13,East,96,3.0,8.0,93,0.00,,,0.03,meteohub,2013-07-05 16:57:00,
2013-07-05 12:02:00,73.8,71.6,30.13,SE,124,6.0,8.0,93,0.00,,,0.03,meteohub,2013-07-05 17:02:00,
2013-07-05 12:07:00,73.8,71.6,30.13,East,87,3.0,8.0,93,0.00,,,0.03,meteohub,2013-07-05 17:07:00,
2013-07-05 12:12:00,73.9,71.8,30.13,SE,126,4.0,8.0,93,0.00,,,0.03,meteohub,2013-07-05 17:12:00,
2013-07-05 12:17:00,73.9,71.8,30.12,East,93,5.0,9.0,93,0.01,,,0.04,meteohub,2013-07-05 17:17:00,
2013-07-05 12:22:00,73.9,71.8,30.12,East,82,2.0,9.0,93,0.01,,,0.04,meteohub,2013-07-05 17:22:00,
2013-07-05 12:27:00,73.9,71.4,30.12,ENE,75,4.0,9.0,92,0.01,,,0.04,meteohub,2013-07-05 17:27:00,
2013-07-05 12:33:00,73.9,71.8,30.12,ESE,107,0.0,8.0,93,0.01,,,0.04,meteohub,2013-07-05 17:33:00,
2013-07-05 12:38:00,74.1,71.6,30.12,ESE,104,4.0,8.0,92,0.01,,,0.04,meteohub,2013-07-05 17:38:00,
2013-07-05 12:43:00,74.1,72.0,30.12,ESE,104,2.0,7.0,93,0.01,,,0.04,meteohub,2013-07-05 17:43:00,
2013-07-05 12:48:00,74.3,72.1,30.12,East,81,1.0,7.0,93,0.01,,,0.04,meteohub,2013-07-05 17:48:00,
2013-07-05 12:53:00,74.3,72.1,30.12,ESE,116,2.0,7.0,93,0.01,,,0.04,meteohub,2013-07-05 17:53:00,
2013-07-05 12:58:00,74.1,71.6,30.12,ENE,74,4.0,7.0,92,0.01,,,0.04,meteohub,2013-07-05 17:58:00,
2013-07-05 13:03:00,74.1,71.6,30.12,ESE,119,1.0,9.0,92,0.01,,,0.04,meteohub,2013-07-05 18:03:00,
2013-07-05 13:08:00,73.9,71.8,30.12,ESE,116,1.0,9.0,93,0.02,,,0.05,meteohub,2013-07-05 18:08:00,
2013-07-05 13:14:00,73.9,71.8,30.12,ESE,114,3.0,9.0,93,0.02,,,0.05,meteohub,2013-07-05 18:14:00,
2013-07-05 13:19:00,73.9,71.8,30.12,East,87,3.0,6.0,93,0.01,,,0.05,meteohub,2013-07-05 18:19:00,
2013-07-05 13:24:00,73.8,71.6,30.12,SE,135,3.0,6.0,93,0.01,,,0.05,meteohub,2013-07-05 18:24:00,
2013-07-05 13:29:00,73.6,71.8,30.12,East,101,4.0,6.0,94,0.02,,,0.06,meteohub,2013-07-05 18:29:00,
2013-07-05 13:31:00,73.4,71.6,30.12,ESE,118,1.0,6.0,94,0.03,,,0.07,meteohub,2013-07-05 18:31:00,
2013-07-05 13:36:00,73.2,71.4,30.12,ESE,106,2.0,6.0,94,0.07,,,0.11,meteohub,2013-07-05 18:36:00,
2013-07-05 13:41:00,73.2,71.4,30.12,East,93,0.0,6.0,94,0.08,,,0.12,meteohub,2013-07-05 18:41:00,
2013-07-05 13:46:00,73.0,71.6,30.12,East,93,0.0,6.0,95,0.09,,,0.13,meteohub,2013-07-05 18:46:00,
2013-07-05 13:51:00,73.0,71.6,30.12,East,92,0.0,2.0,95,0.10,,,0.14,meteohub,2013-07-05 18:51:00,
2013-07-05 13:56:00,73.0,71.6,30.12,East,89,3.0,3.0,95,0.11,,,0.15,meteohub,2013-07-05 18:56:00,
2013-07-05 14:02:00,73.0,71.6,30.11,ENE,70,2.0,4.0,95,0.11,,,0.15,meteohub,2013-07-05 19:02:00,
2013-07-05 14:07:00,73.0,71.6,30.11,East,95,1.0,8.0,95,0.12,,,0.17,meteohub,2013-07-05 19:07:00,
2013-07-05 14:12:00,73.0,71.6,30.11,ESE,110,1.0,8.0,95,0.12,,,0.17,meteohub,2013-07-05 19:12:00,
2013-07-05 14:17:00,73.0,71.6,30.11,ESE,112,1.0,6.0,95,0.13,,,0.18,meteohub,2013-07-05 19:17:00,
2013-07-05 14:22:00,73.0,71.6,30.11,SE,134,1.0,6.0,95,0.14,,,0.19,meteohub,2013-07-05 19:22:00,
2013-07-05 14:27:00,73.0,71.2,30.11,SE,128,4.0,6.0,94,0.13,,,0.19,meteohub,2013-07-05 19:27:00,
2013-07-05 14:32:00,73.0,71.6,30.11,East,95,1.0,7.0,95,0.11,,,0.20,meteohub,2013-07-05 19:32:00,
2013-07-05 14:37:00,72.9,71.4,30.10,ESE,115,2.0,8.0,95,0.10,,,0.21,meteohub,2013-07-05 19:37:00,
2013-07-05 14:42:00,72.9,71.1,30.10,SE,146,2.0,8.0,94,0.10,,,0.22,meteohub,2013-07-05 19:42:00,
2013-07-05 14:48:00,72.9,71.4,30.10,SE,131,1.0,8.0,95,0.10,,,0.23,meteohub,2013-07-05 19:48:00,
2013-07-05 14:50:00,72.9,71.4,30.10,ESE,109,3.0,6.0,95,0.10,,,0.24,meteohub,2013-07-05 19:50:00,
2013-07-05 14:55:00,72.9,71.4,30.10,SE,134,2.0,5.0,95,0.10,,,0.25,meteohub,2013-07-05 19:55:00,
2013-07-05 15:00:00,72.9,71.4,30.10,SE,130,0.0,5.0,95,0.09,,,0.25,meteohub,2013-07-05 20:00:00,
2013-07-05 15:05:00,72.9,71.4,30.10,SE,136,0.0,5.0,95,0.09,,,0.26,meteohub,2013-07-05 20:05:00,
2013-07-05 15:11:00,72.9,71.4,30.10,East,83,2.0,4.0,95,0.10,,,0.27,meteohub,2013-07-05 20:11:00,
2013-07-05 15:16:00,72.9,71.4,30.10,SE,130,0.0,3.0,95,0.10,,,0.28,meteohub,2013-07-05 20:16:00,
2013-07-05 15:21:00,72.7,71.2,30.10,ESE,112,0.0,3.0,95,0.10,,,0.29,meteohub,2013-07-05 20:21:00,
2013-07-05 15:26:00,72.7,71.2,30.10,ESE,103,0.0,3.0,95,0.10,,,0.29,meteohub,2013-07-05 20:26:00,
2013-07-05 15:32:00,72.9,71.4,30.10,ESE,112,2.0,3.0,95,0.09,,,0.30,meteohub,2013-07-05 20:32:00,
2013-07-05 15:37:00,72.9,71.4,30.10,ESE,120,1.0,3.0,95,0.10,,,0.31,meteohub,2013-07-05 20:37:00,
2013-07-05 15:42:00,73.0,71.6,30.10,ESE,120,1.0,3.0,95,0.09,,,0.31,meteohub,2013-07-05 20:42:00,
2013-07-05 15:47:00,73.0,71.6,30.10,ESE,118,1.0,4.0,95,0.10,,,0.33,meteohub,2013-07-05 20:47:00,
2013-07-05 15:52:00,73.2,71.8,30.10,SE,133,2.0,4.0,95,0.09,,,0.33,meteohub,2013-07-05 20:52:00,
2013-07-05 15:57:00,73.2,71.8,30.09,SE,124,3.0,4.0,95,0.08,,,0.33,meteohub,2013-07-05 20:57:00,
2013-07-05 16:02:00,73.4,72.0,30.09,SSE,148,0.0,4.0,95,0.08,,,0.33,meteohub,2013-07-05 21:02:00,
2013-07-05 16:07:00,73.6,72.1,30.09,ENE,77,1.0,4.0,95,0.07,,,0.33,meteohub,2013-07-05 21:07:00,
2013-07-05 16:12:00,73.6,72.1,30.09,SE,142,4.0,5.0,95,0.06,,,0.33,meteohub,2013-07-05 21:12:00,
2013-07-05 16:17:00,73.8,72.3,30.09,ESE,122,2.0,7.0,95,0.06,,,0.34,meteohub,2013-07-05 21:17:00,
2013-07-05 16:22:00,73.9,72.5,30.08,SE,133,2.0,7.0,95,0.05,,,0.34,meteohub,2013-07-05 21:22:00,
2013-07-05 16:27:00,73.9,72.5,30.08,East,80,3.0,9.0,95,0.04,,,0.34,meteohub,2013-07-05 21:27:00,
2013-07-05 16:32:00,73.9,72.1,30.08,ESE,123,4.0,9.0,94,0.04,,,0.34,meteohub,2013-07-05 21:32:00,
2013-07-05 16:37:00,73.9,72.5,30.08,ESE,108,2.0,9.0,95,0.03,,,0.34,meteohub,2013-07-05 21:37:00,
2013-07-05 16:43:00,74.1,72.3,30.07,ESE,121,2.0,8.0,94,0.02,,,0.34,meteohub,2013-07-05 21:43:00,
2013-07-05 16:48:00,74.1,72.3,30.07,SE,127,5.0,9.0,94,0.01,,,0.34,meteohub,2013-07-05 21:48:00,
2013-07-05 16:53:00,74.3,72.9,30.07,SE,140,3.0,9.0,95,0.01,,,0.34,meteohub,2013-07-05 21:53:00,
2013-07-05 16:58:00,74.5,73.0,30.07,ESE,111,2.0,9.0,95,0.01,,,0.34,meteohub,2013-07-05 21:58:00,
2013-07-05 17:03:00,74.7,73.2,30.06,SE,127,2.0,8.0,95,0.01,,,0.34,meteohub,2013-07-05 22:03:00,
2013-07-05 17:08:00,74.7,73.2,30.06,SE,126,1.0,8.0,95,0.01,,,0.34,meteohub,2013-07-05 22:08:00,
2013-07-05 17:13:00,74.7,72.9,30.06,ESE,118,5.0,8.0,94,0.01,,,0.34,meteohub,2013-07-05 22:13:00,
2013-07-05 17:18:00,74.7,72.9,30.06,SE,135,0.0,8.0,94,0.00,,,0.34,meteohub,2013-07-05 22:18:00,
2013-07-05 17:24:00,74.7,72.9,30.05,ESE,113,2.0,9.0,94,0.00,,,0.34,meteohub,2013-07-05 22:24:00,
2013-07-05 17:29:00,74.8,73.0,30.05,East,84,3.0,9.0,94,0.00,,,0.34,meteohub,2013-07-05 22:29:00,
2013-07-05 17:34:00,74.8,73.0,30.05,SE,135,1.0,7.0,94,0.00,,,0.34,meteohub,2013-07-05 22:34:00,
2013-07-05 17:39:00,74.8,73.0,30.05,SW,226,3.0,10.0,94,0.00,,,0.34,meteohub,2013-07-05 22:39:00,
2013-07-05 17:44:00,74.8,73.0,30.05,SE,142,1.0,10.0,94,0.00,,,0.34,meteohub,2013-07-05 22:44:00,
2013-07-05 17:49:00,74.8,73.0,30.05,SE,128,3.0,8.0,94,0.00,,,0.34,meteohub,2013-07-05 22:49:00,
2013-07-05 17:54:00,74.8,73.0,30.05,East,81,2.0,8.0,94,0.00,,,0.34,meteohub,2013-07-05 22:54:00,
2013-07-05 17:59:00,74.8,73.0,30.05,East,92,2.0,8.0,94,0.00,,,0.34,meteohub,2013-07-05 22:59:00,
2013-07-05 18:00:00,74.8,73.0,30.05,SE,131,3.0,8.0,94,0.00,,,0.34,meteohub,2013-07-05 23:00:00,
2013-07-05 18:05:00,74.8,73.0,30.05,SE,132,2.0,7.0,94,0.00,,,0.34,meteohub,2013-07-05 23:05:00,
2013-07-05 18:11:00,74.8,73.0,30.05,SE,126,0.0,5.0,94,0.00,,,0.34,meteohub,2013-07-05 23:11:00,
2013-07-05 18:16:00,74.8,73.0,30.06,SE,133,3.0,5.0,94,0.00,,,0.34,meteohub,2013-07-05 23:16:00,
2013-07-05 18:21:00,74.8,73.0,30.06,SE,136,0.0,5.0,94,0.00,,,0.34,meteohub,2013-07-05 23:21:00,
2013-07-05 18:26:00,74.8,73.0,30.06,SSE,153,1.0,5.0,94,0.00,,,0.34,meteohub,2013-07-05 23:26:00,
2013-07-05 18:31:00,74.8,73.0,30.06,WSW,241,4.0,4.0,94,0.00,,,0.34,meteohub,2013-07-05 23:31:00,
2013-07-05 18:36:00,73.9,71.4,30.06,SSW,197,3.0,7.0,92,0.00,,,0.34,meteohub,2013-07-05 23:36:00,
2013-07-05 18:41:00,73.6,71.4,30.07,SE,146,0.0,7.0,93,0.00,,,0.34,meteohub,2013-07-05 23:41:00,
2013-07-05 18:46:00,73.0,70.9,30.07,SSW,204,1.0,7.0,93,0.00,,,0.34,meteohub,2013-07-05 23:46:00,
2013-07-05 18:51:00,72.7,70.5,30.07,South,187,0.0,5.0,93,0.00,,,0.34,meteohub,2013-07-05 23:51:00,
2013-07-05 18:56:00,72.3,70.2,30.07,SSE,166,1.0,5.0,93,0.00,,,0.34,meteohub,2013-07-05 23:56:00,
2013-07-05 19:02:00,72.1,70.0,30.07,SSW,195,0.0,4.0,93,0.00,,,0.34,meteohub,2013-07-06 00:02:00,
2013-07-05 19:07:00,72.1,70.3,30.07,East,80,0.0,5.0,94,0.00,,,0.00,meteohub,2013-07-06 00:07:00,
2013-07-05 19:12:00,72.0,69.8,30.07,ESE,110,2.0,5.0,93,0.00,,,0.00,meteohub,2013-07-06 00:12:00,
2013-07-05 19:14:00,72.0,69.8,30.07,NE,45,0.0,5.0,93,0.00,,,0.00,meteohub,2013-07-06 00:14:00,
2013-07-05 19:19:00,72.0,69.8,30.07,ESE,105,0.0,4.0,93,0.00,,,0.00,meteohub,2013-07-06 00:19:00,
2013-07-05 19:24:00,72.0,69.8,30.08,ESE,106,0.0,4.0,93,0.00,,,0.00,meteohub,2013-07-06 00:24:00,
2013-07-05 19:29:00,71.8,69.6,30.08,WSW,244,1.0,4.0,93,0.00,,,0.00,meteohub,2013-07-06 00:29:00,
2013-07-05 19:34:00,71.8,69.6,30.08,West,269,1.0,4.0,93,0.00,,,0.00,meteohub,2013-07-06 00:34:00,
2013-07-05 19:39:00,71.6,69.4,30.09,West,269,0.0,3.0,93,0.00,,,0.00,meteohub,2013-07-06 00:39:00,
2013-07-05 19:44:00,71.6,69.8,30.09,West,269,0.0,3.0,94,0.00,,,0.00,meteohub,2013-07-06 00:44:00,
2013-07-05 19:50:00,71.4,69.6,30.09,West,269,1.0,2.0,94,0.00,,,0.00,meteohub,2013-07-06 00:50:00,
2013-07-05 19:55:00,71.2,69.4,30.09,West,269,1.0,3.0,94,0.00,,,0.00,meteohub,2013-07-06 00:55:00,
2013-07-05 20:00:00,71.2,69.4,30.09,West,269,1.0,3.0,94,0.01,,,0.01,meteohub,2013-07-06 01:00:00,
2013-07-05 20:05:00,71.1,69.3,30.09,West,269,1.0,3.0,94,0.01,,,0.01,meteohub,2013-07-06 01:05:00,
2013-07-05 20:10:00,71.1,69.6,30.09,West,269,0.0,2.0,95,0.01,,,0.01,meteohub,2013-07-06 01:10:00,
2013-07-05 20:15:00,70.9,69.4,30.09,West,269,0.0,2.0,95,0.01,,,0.01,meteohub,2013-07-06 01:15:00,
2013-07-05 20:20:00,71.1,69.6,30.09,West,269,0.0,2.0,95,0.01,,,0.01,meteohub,2013-07-06 01:20:00,
2013-07-05 20:25:00,71.1,69.6,30.09,West,269,0.0,2.0,95,0.01,,,0.01,meteohub,2013-07-06 01:25:00,
2013-07-05 20:30:00,71.1,69.6,30.09,West,269,0.0,0.0,95,0.01,,,0.01,meteohub,2013-07-06 01:30:00,
2013-07-05 20:36:00,70.9,69.4,30.09,West,269,0.0,0.0,95,0.01,,,0.01,meteohub,2013-07-06 01:36:00,
2013-07-05 20:41:00,70.9,69.4,30.09,West,269,0.0,0.0,95,0.01,,,0.01,meteohub,2013-07-06 01:41:00,
2013-07-05 20:46:00,70.9,69.4,30.09,West,269,0.0,1.0,95,0.01,,,0.01,meteohub,2013-07-06 01:46:00,
2013-07-05 20:51:00,70.9,69.4,30.08,West,269,0.0,1.0,95,0.01,,,0.01,meteohub,2013-07-06 01:51:00,
2013-07-05 20:56:00,70.7,69.3,30.09,West,269,0.0,1.0,95,0.01,,,0.01,meteohub,2013-07-06 01:56:00,
2013-07-05 21:01:00,70.7,69.3,30.09,West,269,0.0,1.0,95,0.00,,,0.01,meteohub,2013-07-06 02:01:00,
2013-07-05 21:02:00,70.7,69.3,30.09,West,269,1.0,1.0,95,0.00,,,0.01,meteohub,2013-07-06 02:02:00,
2013-07-05 21:07:00,70.7,69.3,30.09,WSW,252,1.0,1.0,95,0.00,,,0.01,meteohub,2013-07-06 02:07:00,
2013-07-05 21:12:00,70.7,69.3,30.09,SSE,151,1.0,1.0,95,0.00,,,0.01,meteohub,2013-07-06 02:12:00,
2013-07-05 21:17:00,70.7,69.3,30.09,SE,127,2.0,2.0,95,0.00,,,0.01,meteohub,2013-07-06 02:17:00,
2013-07-05 21:22:00,70.7,69.3,30.09,ESE,112,1.0,2.0,95,0.00,,,0.01,meteohub,2013-07-06 02:22:00,
2013-07-05 21:27:00,70.7,69.3,30.09,SE,129,1.0,3.0,95,0.01,,,0.02,meteohub,2013-07-06 02:27:00,
2013-07-05 21:32:00,70.7,69.3,30.09,ESE,119,1.0,3.0,95,0.01,,,0.02,meteohub,2013-07-06 02:32:00,
2013-07-05 21:35:00,70.7,69.3,30.09,SE,127,1.0,3.0,95,0.01,,,0.02,meteohub,2013-07-06 02:35:00,
2013-07-05 21:38:00,70.5,69.1,30.09,ESE,109,2.0,3.0,95,0.01,,,0.02,meteohub,2013-07-06 02:38:00,
2013-07-05 21:44:00,70.5,69.1,30.09,ESE,116,2.0,5.0,95,0.01,,,0.02,meteohub,2013-07-06 02:44:00,
2013-07-05 21:49:00,70.5,69.1,30.09,ESE,107,1.0,5.0,95,0.01,,,0.02,meteohub,2013-07-06 02:49:00,
2013-07-05 21:54:00,70.5,69.1,30.09,ESE,107,1.0,5.0,95,0.01,,,0.02,meteohub,2013-07-06 02:54:00,
2013-07-05 21:59:00,70.3,68.9,30.08,ESE,118,1.0,2.0,95,0.01,,,0.02,meteohub,2013-07-06 02:59:00,
2013-07-05 22:04:00,70.5,69.1,30.08,ESE,102,1.0,3.0,95,0.01,,,0.02,meteohub,2013-07-06 03:04:00,
2013-07-05 22:09:00,70.5,69.1,30.08,East,95,1.0,3.0,95,0.01,,,0.02,meteohub,2013-07-06 03:09:00,
2013-07-05 22:14:00,70.5,69.1,30.08,East,95,0.0,3.0,95,0.01,,,0.02,meteohub,2013-07-06 03:14:00,
2013-07-05 22:19:00,70.5,69.1,30.08,East,95,0.0,2.0,95,0.01,,,0.02,meteohub,2013-07-06 03:19:00,
2013-07-05 22:24:00,70.5,69.1,30.07,East,95,0.0,2.0,95,0.00,,,0.02,meteohub,2013-07-06 03:24:00,
2013-07-05 22:29:00,70.3,68.9,30.07,East,95,0.0,1.0,95,0.00,,,0.02,meteohub,2013-07-06 03:29:00,
2013-07-05 22:30:00,70.3,68.9,30.07,East,95,0.0,1.0,95,0.00,,,0.02,meteohub,2013-07-06 03:30:00,
2013-07-05 22:35:00,70.3,68.9,30.07,East,95,0.0,0.0,95,0.00,,,0.02,meteohub,2013-07-06 03:35:00,
2013-07-05 22:40:00,70.3,68.9,30.07,East,95,0.0,0.0,95,0.00,,,0.02,meteohub,2013-07-06 03:40:00,
2013-07-05 22:45:00,70.5,69.1,30.06,East,95,0.0,0.0,95,0.00,,,0.02,meteohub,2013-07-06 03:45:00,
2013-07-05 22:50:00,70.5,69.1,30.06,East,95,0.0,1.0,95,0.00,,,0.02,meteohub,2013-07-06 03:50:00,
2013-07-05 22:56:00,70.5,69.1,30.06,East,95,0.0,1.0,95,0.00,,,0.02,meteohub,2013-07-06 03:56:00,
2013-07-05 23:01:00,70.5,69.1,30.06,ESE,108,2.0,2.0,95,0.00,,,0.02,meteohub,2013-07-06 04:01:00,
2013-07-05 23:02:00,70.7,69.3,30.06,SE,137,1.0,2.0,95,0.00,,,0.02,meteohub,2013-07-06 04:02:00,
2013-07-05 23:04:00,70.7,69.3,30.05,East,92,1.0,2.0,95,0.00,,,0.02,meteohub,2013-07-06 04:04:00,
2013-07-05 23:06:00,70.7,69.3,30.05,East,101,2.0,2.0,95,0.00,,,0.02,meteohub,2013-07-06 04:06:00,
2013-07-05 23:11:00,70.9,69.4,30.05,ESE,112,1.0,3.0,95,0.00,,,0.02,meteohub,2013-07-06 04:11:00,
2013-07-05 23:17:00,70.9,69.4,30.06,ESE,112,1.0,3.0,95,0.00,,,0.02,meteohub,2013-07-06 04:17:00,
2013-07-05 23:22:00,70.9,69.6,30.06,ESE,104,2.0,3.0,96,0.00,,,0.02,meteohub,2013-07-06 04:22:00,
2013-07-05 23:27:00,71.1,69.8,30.05,East,100,3.0,5.0,96,0.00,,,0.02,meteohub,2013-07-06 04:27:00,
2013-07-05 23:32:00,71.4,70.2,30.05,East,92,2.0,5.0,96,0.00,,,0.02,meteohub,2013-07-06 04:32:00,
2013-07-05 23:37:00,71.6,70.3,30.05,East,93,3.0,6.0,96,0.00,,,0.02,meteohub,2013-07-06 04:37:00,
2013-07-05 23:42:00,71.8,70.5,30.05,East,96,2.0,6.0,96,0.00,,,0.02,meteohub,2013-07-06 04:42:00,
2013-07-05 23:47:00,72.0,70.7,30.05,East,96,2.0,6.0,96,0.00,,,0.02,meteohub,2013-07-06 04:47:00,
2013-07-05 23:52:00,72.0,70.7,30.05,East,99,3.0,8.0,96,0.00,,,0.02,meteohub,2013-07-06 04:52:00,
2013-07-05 23:57:00,72.1,70.9,30.05,ESE,121,8.0,10.0,96,0.00,,,0.02,meteohub,2013-07-06 04:57:00,